createdAt,value
2022-08-15T00:06:39.089Z,12.13
2022-08-15T00:13:43.137Z,12.10
2022-08-15T00:20:50.367Z,10.43
2022-08-15T00:27:54.917Z,11.18
2022-08-15T00:34:57.075Z,11.27
2022-08-15T00:42:00.191Z,11.07
2022-08-15T00:49:02.352Z,11.85
2022-08-15T00:56:06.450Z,11.77
2022-08-15T01:03:31.277Z,12.55
2022-08-15T01:10:36.827Z,11.88
2022-08-15T01:17:39.332Z,11.52
2022-08-15T01:25:25.627Z,11.70
2022-08-15T01:32:30.296Z,12.40
2022-08-15T01:39:56.943Z,11.68
2022-08-15T01:46:59.111Z,11.98
2022-08-15T01:54:04.593Z,12.05
2022-08-15T02:01:09.771Z,11.95
2022-08-15T02:08:35.199Z,11.63
2022-08-15T02:15:35.431Z,12.85
2022-08-15T02:22:37.663Z,11.98
2022-08-15T02:29:40.373Z,12.93
2022-08-15T02:36:57.823Z,12.60
2022-08-15T02:44:13.188Z,12.60
2022-08-15T02:51:16.655Z,12.80
2022-08-15T02:58:28.628Z,12.80
2022-08-15T03:05:35.093Z,13.10
2022-08-15T03:12:47.862Z,14.05
2022-08-15T03:19:52.815Z,13.38
2022-08-15T03:26:54.914Z,13.18
2022-08-15T03:33:58.684Z,12.48
2022-08-15T03:41:02.904Z,13.55
2022-08-15T03:48:04.943Z,12.95
2022-08-15T03:55:15.646Z,13.43
2022-08-15T04:02:29.983Z,12.95
2022-08-15T04:09:33.196Z,12.63
2022-08-15T04:17:01.587Z,13.40
2022-08-15T04:23:56.751Z,13.30
2022-08-15T04:31:03.151Z,13.18
2022-08-15T04:38:05.691Z,12.57
2022-08-15T04:45:08.450Z,12.85
2022-08-15T04:52:19.817Z,12.23
2022-08-15T04:59:35.915Z,12.90
2022-08-15T05:06:40.302Z,13.00
2022-08-15T05:13:56.139Z,15.77
2022-08-15T05:20:59.672Z,14.45
2022-08-15T05:28:31.585Z,12.93
2022-08-15T05:35:24.104Z,12.77
2022-08-15T05:42:44.485Z,13.53
2022-08-15T05:49:58.175Z,13.25
2022-08-15T05:57:17.629Z,13.60
2022-08-15T06:04:29.820Z,12.65
2022-08-15T06:11:46.391Z,12.18
2022-08-15T06:18:48.750Z,11.98
2022-08-15T06:26:19.859Z,13.15
2022-08-15T06:33:51.805Z,12.30
2022-08-15T06:40:57.956Z,12.60
2022-08-15T06:48:02.647Z,12.43
2022-08-15T06:55:25.536Z,12.93
2022-08-15T07:02:50.469Z,10.85
2022-08-15T07:09:54.233Z,11.90
2022-08-15T07:16:56.718Z,12.18
2022-08-15T07:24:33.285Z,12.73
2022-08-15T07:31:41.181Z,11.02
2022-08-15T07:38:56.953Z,10.80
2022-08-15T07:46:23.438Z,11.07
2022-08-15T07:53:26.213Z,11.10
2022-08-15T08:00:45.361Z,10.25
2022-08-15T08:07:51.793Z,9.60
2022-08-15T08:14:54.103Z,10.48
2022-08-15T08:22:03.784Z,9.52
2022-08-15T08:29:21.422Z,9.50
2022-08-15T08:36:37.392Z,9.85
2022-08-15T08:43:55.449Z,9.55
2022-08-15T08:51:17.416Z,10.03
2022-08-15T08:58:43.337Z,8.35
2022-08-15T09:05:50.557Z,8.07
2022-08-15T09:13:12.440Z,8.13
2022-08-15T09:20:19.582Z,7.43
2022-08-15T09:27:27.726Z,8.38
2022-08-15T09:34:48.125Z,7.88
2022-08-15T09:41:57.361Z,8.60
2022-08-15T09:49:09.178Z,8.23
2022-08-15T09:56:18.673Z,7.55
2022-08-15T10:03:29.929Z,7.25
2022-08-15T10:10:37.956Z,7.55
2022-08-15T10:25:35.684Z,7.25
2022-08-15T10:32:59.992Z,6.47
2022-08-15T10:40:04.126Z,6.88
2022-08-15T10:47:23.210Z,6.72
2022-08-15T10:54:45.311Z,6.10
2022-08-15T11:01:48.934Z,6.18
2022-08-15T11:08:55.203Z,6.55
2022-08-15T11:16:31.739Z,6.55
2022-08-15T11:23:42.555Z,6.65
2022-08-15T11:30:46.109Z,6.65
2022-08-15T11:37:54.085Z,6.97
2022-08-15T11:44:58.468Z,6.47
2022-08-15T11:52:40.847Z,7.20
2022-08-15T11:59:23.807Z,6.35
2022-08-15T12:06:34.798Z,6.72
2022-08-15T12:13:56.439Z,6.53
2022-08-15T12:21:01.331Z,6.25
2022-08-15T12:28:04.632Z,6.70
2022-08-15T12:35:42.468Z,7.07
2022-08-15T12:42:59.239Z,6.43
2022-08-15T12:50:04.265Z,6.55
2022-08-15T12:57:12.864Z,6.63
2022-08-15T13:04:45.757Z,6.47
2022-08-15T13:11:42.357Z,6.13
2022-08-15T13:18:44.243Z,6.60
2022-08-15T13:25:47.179Z,6.30
2022-08-15T13:32:51.503Z,5.25
2022-08-15T13:39:58.134Z,5.85
2022-08-15T13:47:00.925Z,6.80
2022-08-15T13:54:33.613Z,6.38
2022-08-15T14:01:25.674Z,6.38
2022-08-15T14:09:16.757Z,6.30
2022-08-15T14:16:08.524Z,7.03
2022-08-15T14:23:22.694Z,6.05
2022-08-15T14:30:34.667Z,6.03
2022-08-15T14:37:47.269Z,6.03
2022-08-15T14:45:01.729Z,6.07
2022-08-15T14:52:25.468Z,6.75
2022-08-15T14:59:39.443Z,6.15
2022-08-15T15:06:47.494Z,6.45
2022-08-15T15:13:52.669Z,6.10
2022-08-15T15:20:57.858Z,6.43
2022-08-15T15:28:34.912Z,6.35
2022-08-15T15:35:21.893Z,6.30
2022-08-15T15:42:31.955Z,6.18
2022-08-15T15:49:41.999Z,6.47
2022-08-15T15:56:43.886Z,7.03
2022-08-15T16:04:05.158Z,13.70
2022-08-15T16:11:07.581Z,7.07
2022-08-15T16:18:24.134Z,7.40
2022-08-15T16:25:42.663Z,7.32
2022-08-15T16:32:53.025Z,7.05
2022-08-15T16:40:25.090Z,7.20
2022-08-15T16:47:44.169Z,7.55
2022-08-15T16:55:04.532Z,6.95
2022-08-15T17:03:04.231Z,7.50
2022-08-15T17:09:56.230Z,7.93
2022-08-15T17:16:55.942Z,7.78
2022-08-15T17:24:42.517Z,7.32
2022-08-15T17:31:45.110Z,7.68
2022-08-15T17:38:53.808Z,7.50
2022-08-15T17:45:57.856Z,7.72
2022-08-15T17:53:20.836Z,7.80
2022-08-15T18:00:32.271Z,7.63
2022-08-15T18:07:36.232Z,8.43
2022-08-15T18:14:42.956Z,8.25
2022-08-15T18:21:54.873Z,8.10
2022-08-15T18:28:59.258Z,8.02
2022-08-15T18:36:02.771Z,8.35
2022-08-15T18:43:09.321Z,8.18
2022-08-15T18:50:43.918Z,8.38
2022-08-15T18:57:47.366Z,8.68
2022-08-15T19:05:13.146Z,8.18
2022-08-15T19:12:35.510Z,8.55
2022-08-15T19:19:42.594Z,8.85
2022-08-15T19:26:52.828Z,8.50
2022-08-15T19:34:08.649Z,8.70
2022-08-15T19:41:29.092Z,9.38
2022-08-15T19:48:41.747Z,9.70
2022-08-15T19:55:56.205Z,8.52
2022-08-15T20:03:02.166Z,8.55
2022-08-15T20:10:26.381Z,9.68
2022-08-15T20:17:57.942Z,9.85
2022-08-15T20:25:00.895Z,9.90
2022-08-15T20:32:23.251Z,9.27
2022-08-15T20:39:33.159Z,9.00
2022-08-15T20:47:03.584Z,9.45
2022-08-15T20:54:33.272Z,8.95
2022-08-15T21:01:34.571Z,10.23
2022-08-15T21:08:39.069Z,10.27
2022-08-15T21:16:05.389Z,9.30
2022-08-15T21:23:15.291Z,7.90
2022-08-15T21:30:43.416Z,8.68
2022-08-15T21:37:53.452Z,7.78
2022-08-15T21:45:02.276Z,7.45
2022-08-15T21:52:15.632Z,7.20
2022-08-15T22:00:20.733Z,8.30
2022-08-15T22:07:04.677Z,7.20
2022-08-15T22:14:08.969Z,7.45
2022-08-15T22:21:33.994Z,8.13
2022-08-15T22:28:59.448Z,7.55
2022-08-15T22:36:05.012Z,7.22
2022-08-15T22:43:21.975Z,7.60
2022-08-15T22:50:26.581Z,7.65
2022-08-15T22:57:58.947Z,7.70
2022-08-15T23:04:58.708Z,8.35
2022-08-15T23:12:02.179Z,8.18
2022-08-15T23:19:17.245Z,9.00
2022-08-15T23:26:31.060Z,8.68
2022-08-15T23:33:53.901Z,8.38
2022-08-15T23:41:03.248Z,8.80
2022-08-15T23:48:06.156Z,8.75
2022-08-15T23:55:12.467Z,8.23
